createdAt,value
2018-02-12T00:00:19.557Z,83.60
2018-02-12T00:02:47.020Z,83.70
2018-02-12T00:05:14.489Z,83.70
2018-02-12T00:07:41.929Z,83.30
2018-02-12T00:10:09.389Z,83.30
2018-02-12T00:12:36.851Z,83.30
2018-02-12T00:15:04.309Z,82.80
2018-02-12T00:17:31.756Z,83.00
2018-02-12T00:19:59.211Z,83.00
2018-02-12T00:22:26.666Z,82.60
2018-02-12T00:24:54.117Z,82.40
2018-02-12T00:27:21.577Z,82.50
2018-02-12T00:29:49.022Z,82.30
2018-02-12T00:32:17.246Z,82.90
2018-02-12T00:34:45.457Z,82.70
2018-02-12T00:37:13.690Z,82.50
2018-02-12T00:39:41.138Z,82.50
2018-02-12T00:42:08.581Z,83.00
2018-02-12T00:44:36.047Z,81.90
2018-02-12T00:47:03.496Z,81.90
2018-02-12T00:49:30.957Z,82.50
2018-02-12T00:51:58.455Z,81.90
2018-02-12T00:54:25.881Z,82.00
2018-02-12T00:56:53.328Z,82.20
2018-02-12T00:59:20.845Z,81.90
2018-02-12T01:01:48.261Z,81.50
2018-02-12T01:04:15.725Z,81.90
2018-02-12T01:06:43.198Z,81.20
2018-02-12T01:09:10.656Z,82.00
2018-02-12T01:11:38.102Z,81.20
2018-02-12T01:14:05.573Z,80.80
2018-02-12T01:16:33.018Z,80.70
2018-02-12T01:19:00.477Z,81.90
2018-02-12T01:21:27.935Z,81.60
2018-02-12T01:23:55.618Z,80.40
2018-02-12T01:26:23.833Z,81.80
2018-02-12T01:28:51.290Z,80.90
2018-02-12T01:31:19.149Z,80.30
2018-02-12T01:33:46.620Z,81.20
2018-02-12T01:36:14.125Z,80.20
2018-02-12T01:38:41.581Z,80.90
2018-02-12T01:41:09.039Z,80.50
2018-02-12T01:43:36.486Z,80.10
2018-02-12T01:46:03.950Z,80.70
2018-02-12T01:48:31.402Z,80.30
2018-02-12T01:50:58.862Z,80.10
2018-02-12T01:53:26.314Z,79.50
2018-02-12T01:55:53.768Z,80.10
2018-02-12T01:58:21.242Z,80.30
2018-02-12T02:00:48.694Z,80.30
2018-02-12T02:03:16.155Z,80.20
2018-02-12T02:05:43.605Z,80.30
2018-02-12T02:08:11.070Z,80.30
2018-02-12T02:10:39.295Z,80.20
2018-02-12T02:13:06.752Z,80.20
2018-02-12T02:15:34.198Z,80.30
2018-02-12T02:18:01.658Z,80.00
2018-02-12T02:20:29.100Z,80.30
2018-02-12T02:22:56.566Z,80.60
2018-02-12T02:25:24.030Z,80.30
2018-02-12T02:27:51.491Z,80.30
2018-02-12T02:30:18.970Z,80.70
2018-02-12T02:32:46.420Z,80.40
2018-02-12T02:35:13.891Z,80.50
2018-02-12T02:37:41.338Z,80.50
2018-02-12T02:40:08.807Z,80.50
2018-02-12T02:42:36.253Z,80.90
2018-02-12T02:45:03.707Z,80.70
2018-02-12T02:47:31.166Z,81.00
2018-02-12T02:49:58.653Z,80.90
2018-02-12T02:52:26.116Z,81.20
2018-02-12T02:54:54.339Z,80.70
2018-02-12T02:57:21.796Z,80.70
2018-02-12T02:59:49.245Z,80.30
2018-02-12T03:02:16.706Z,80.10
2018-02-12T03:04:44.151Z,79.80
2018-02-12T03:07:11.609Z,79.70
2018-02-12T03:09:39.070Z,78.90
2018-02-12T03:12:06.520Z,79.70
2018-02-12T03:14:33.975Z,78.60
2018-02-12T03:17:01.431Z,80.10
2018-02-12T03:19:28.891Z,79.20
2018-02-12T03:21:56.346Z,78.80
2018-02-12T03:24:23.826Z,79.40
2018-02-12T03:26:51.282Z,79.10
2018-02-12T03:29:18.742Z,78.80
2018-02-12T03:31:46.190Z,79.70
2018-02-12T03:34:13.654Z,79.70
2018-02-12T03:36:41.101Z,79.10
2018-02-12T03:39:08.858Z,79.10
2018-02-12T03:41:36.305Z,79.40
2018-02-12T03:44:03.769Z,79.00
2018-02-12T03:46:31.231Z,78.20
2018-02-12T03:48:58.671Z,78.80
2018-02-12T03:51:26.135Z,78.30
2018-02-12T03:53:53.593Z,78.30
2018-02-12T03:56:21.045Z,78.90
2018-02-12T03:58:48.498Z,78.60
2018-02-12T04:01:15.966Z,78.60
2018-02-12T04:03:43.414Z,78.10
2018-02-12T04:06:10.874Z,78.80
2018-02-12T04:08:38.325Z,78.50
2018-02-12T04:11:05.790Z,79.20
2018-02-12T04:13:33.237Z,79.10
2018-02-12T04:16:00.710Z,79.30
2018-02-12T04:18:28.160Z,78.60
2018-02-12T04:20:55.610Z,78.90
2018-02-12T04:23:23.061Z,78.10
2018-02-12T04:25:51.293Z,77.90
2018-02-12T04:28:18.742Z,77.80
2018-02-12T04:30:46.193Z,79.50
2018-02-12T04:33:14.420Z,78.40
2018-02-12T04:35:41.865Z,78.40
2018-02-12T04:38:10.088Z,78.80
2018-02-12T04:40:37.543Z,78.80
2018-02-12T04:43:04.989Z,79.10
2018-02-12T04:45:32.455Z,79.10
2018-02-12T04:47:59.906Z,79.50
2018-02-12T04:50:27.361Z,79.60
2018-02-12T04:52:54.809Z,79.50
2018-02-12T04:55:22.267Z,78.80
2018-02-12T04:57:49.709Z,78.00
2018-02-12T05:00:17.177Z,77.70
2018-02-12T05:02:44.634Z,78.50
2018-02-12T05:05:12.083Z,78.70
2018-02-12T05:07:40.301Z,78.30
2018-02-12T05:10:07.759Z,78.20
2018-02-12T05:12:35.222Z,77.10
2018-02-12T05:15:02.678Z,77.60
2018-02-12T05:17:30.164Z,77.00
2018-02-12T05:19:57.626Z,77.30
2018-02-12T05:22:25.105Z,77.20
2018-02-12T05:24:52.566Z,77.10
2018-02-12T05:27:20.017Z,76.40
2018-02-12T05:29:47.465Z,77.10
2018-02-12T05:32:14.909Z,77.10
2018-02-12T05:34:43.144Z,77.20
2018-02-12T05:37:10.586Z,77.10
2018-02-12T05:39:38.069Z,77.20
2018-02-12T05:42:05.525Z,76.00
2018-02-12T05:44:32.982Z,75.70
2018-02-12T05:47:01.199Z,75.30
2018-02-12T05:49:29.430Z,75.00
2018-02-12T05:51:56.873Z,74.90
2018-02-12T05:54:24.338Z,75.50
2018-02-12T05:56:51.792Z,76.00
2018-02-12T05:59:19.251Z,75.90
2018-02-12T06:01:46.693Z,76.20
2018-02-12T06:04:14.157Z,76.70
2018-02-12T06:06:41.595Z,75.70
2018-02-12T06:09:09.046Z,73.90
2018-02-12T06:11:36.498Z,74.70
2018-02-12T06:14:03.958Z,74.00
2018-02-12T06:16:31.409Z,74.50
2018-02-12T06:18:58.875Z,76.20
2018-02-12T06:21:26.330Z,77.40
2018-02-12T06:23:53.782Z,78.80
2018-02-12T06:26:21.246Z,79.70
2018-02-12T06:28:48.700Z,80.30
2018-02-12T06:31:16.168Z,80.90
2018-02-12T06:33:43.623Z,80.60
2018-02-12T06:36:11.101Z,80.90
2018-02-12T06:38:38.549Z,81.00
2018-02-12T06:41:06.050Z,81.00
2018-02-12T06:43:33.502Z,80.80
2018-02-12T06:46:00.963Z,81.20
2018-02-12T06:48:28.421Z,81.30
2018-02-12T06:50:55.900Z,81.60
2018-02-12T06:53:23.353Z,82.00
2018-02-12T06:55:50.813Z,82.20
2018-02-12T06:58:19.042Z,82.40
2018-02-12T07:00:46.490Z,82.30
2018-02-12T07:03:13.945Z,81.40
2018-02-12T07:05:41.427Z,81.10
2018-02-12T07:08:08.878Z,81.00
2018-02-12T07:10:36.339Z,79.70
2018-02-12T07:13:03.796Z,78.10
2018-02-12T07:15:31.261Z,79.20
2018-02-12T07:17:58.713Z,78.30
2018-02-12T07:20:26.207Z,78.00
2018-02-12T07:22:53.645Z,78.70
2018-02-12T07:25:21.093Z,79.00
2018-02-12T07:27:48.551Z,78.60
2018-02-12T07:30:16.007Z,78.80
2018-02-12T07:32:43.471Z,79.20
2018-02-12T07:35:10.926Z,79.20
2018-02-12T07:37:38.390Z,78.70
2018-02-12T07:40:06.601Z,79.50
2018-02-12T07:42:34.067Z,79.40
2018-02-12T07:45:01.526Z,79.40
2018-02-12T07:47:28.977Z,79.90
2018-02-12T07:49:56.445Z,80.00
2018-02-12T07:52:23.899Z,79.40
2018-02-12T07:54:51.361Z,79.70
2018-02-12T07:57:18.815Z,79.40
2018-02-12T07:59:46.278Z,79.90
2018-02-12T08:02:13.723Z,79.10
2018-02-12T08:04:41.187Z,79.10
2018-02-12T08:07:08.650Z,78.70
2018-02-12T08:09:36.101Z,78.80
2018-02-12T08:12:03.577Z,77.50
2018-02-12T08:14:31.030Z,78.30
2018-02-12T08:16:58.491Z,77.10
2018-02-12T08:19:25.945Z,76.20
2018-02-12T08:21:53.406Z,75.80
2018-02-12T08:24:20.854Z,75.00
2018-02-12T08:26:48.323Z,75.40
2018-02-12T08:29:15.774Z,74.50
2018-02-12T08:31:43.233Z,74.90
2018-02-12T08:34:10.685Z,74.90
2018-02-12T08:36:38.146Z,74.60
2018-02-12T08:39:05.598Z,74.80
2018-02-12T08:41:33.063Z,74.90
2018-02-12T08:44:00.505Z,75.50
2018-02-12T08:46:27.983Z,75.80
2018-02-12T08:48:55.441Z,76.30
2018-02-12T08:51:22.902Z,76.20
2018-02-12T08:53:50.353Z,76.20
2018-02-12T08:56:17.821Z,76.60
2018-02-12T08:58:46.058Z,76.60
2018-02-12T09:01:13.507Z,76.20
2018-02-12T09:03:40.972Z,75.90
2018-02-12T09:06:08.430Z,75.20
2018-02-12T09:08:35.891Z,74.50
2018-02-12T09:11:03.352Z,75.00
2018-02-12T09:13:30.814Z,73.90
2018-02-12T09:15:58.265Z,73.80
2018-02-12T09:18:26.503Z,73.40
2018-02-12T09:20:53.972Z,74.10
2018-02-12T09:23:21.461Z,72.90
2018-02-12T09:25:48.913Z,73.50
2018-02-12T09:28:16.418Z,71.00
2018-02-12T09:30:43.851Z,70.50
2018-02-12T09:33:11.309Z,70.60
2018-02-12T09:35:38.782Z,69.70
2018-02-12T09:38:07.011Z,68.30
2018-02-12T09:40:34.490Z,68.30
2018-02-12T09:43:01.946Z,69.10
2018-02-12T09:45:29.409Z,69.60
2018-02-12T09:47:56.869Z,69.30
2018-02-12T09:50:24.327Z,69.30
2018-02-12T09:52:51.793Z,66.00
2018-02-12T09:55:19.262Z,65.00
2018-02-12T09:57:47.497Z,64.10
2018-02-12T10:00:14.945Z,64.10
2018-02-12T10:02:42.409Z,65.00
2018-02-12T10:05:09.866Z,62.50
2018-02-12T10:07:37.325Z,63.50
2018-02-12T10:10:04.782Z,64.00
2018-02-12T10:12:32.233Z,63.50
2018-02-12T10:14:59.703Z,63.30
2018-02-12T10:17:27.175Z,62.30
2018-02-12T10:19:54.630Z,62.60
2018-02-12T10:22:22.094Z,61.50
2018-02-12T10:24:49.572Z,63.20
2018-02-12T10:27:17.814Z,61.60
2018-02-12T10:29:45.273Z,61.60
2018-02-12T10:32:12.751Z,60.80
2018-02-12T10:34:40.206Z,59.30
2018-02-12T10:37:08.440Z,60.50
2018-02-12T10:39:35.896Z,59.70
2018-02-12T10:42:03.343Z,59.70
2018-02-12T10:44:30.805Z,59.60
2018-02-12T10:46:58.262Z,59.80
2018-02-12T10:49:25.717Z,57.90
2018-02-12T10:51:53.186Z,58.20
2018-02-12T10:54:20.641Z,58.70
2018-02-12T10:56:48.117Z,59.20
2018-02-12T10:59:15.598Z,59.30
2018-02-12T11:01:43.834Z,59.90
2018-02-12T11:04:11.289Z,59.80
2018-02-12T11:06:38.754Z,59.60
2018-02-12T11:09:06.222Z,59.30
2018-02-12T11:11:33.765Z,59.40
2018-02-12T11:14:01.249Z,60.00
2018-02-12T11:16:28.698Z,60.00
2018-02-12T11:18:56.153Z,60.90
2018-02-12T11:21:23.605Z,62.50
2018-02-12T11:23:51.868Z,62.50
2018-02-12T11:26:19.336Z,63.90
2018-02-12T11:28:46.802Z,64.40
2018-02-12T11:31:14.269Z,64.50
2018-02-12T11:33:41.713Z,66.00
2018-02-12T11:36:09.165Z,65.20
2018-02-12T11:38:36.625Z,65.50
2018-02-12T11:41:04.086Z,65.70
2018-02-12T11:43:31.810Z,67.30
2018-02-12T11:45:59.273Z,66.30
2018-02-12T11:48:26.762Z,65.60
2018-02-12T11:50:54.221Z,66.30
2018-02-12T11:53:21.675Z,66.30
2018-02-12T11:55:49.143Z,66.10
2018-02-12T11:58:16.606Z,64.70
2018-02-12T12:00:44.067Z,64.60
2018-02-12T12:03:12.290Z,62.60
2018-02-12T12:05:39.774Z,62.30
2018-02-12T12:08:07.296Z,61.00
2018-02-12T12:10:35.486Z,58.10
2018-02-12T12:13:02.941Z,57.50
2018-02-12T12:15:30.402Z,56.90
2018-02-12T12:17:57.895Z,57.10
2018-02-12T12:20:26.161Z,54.10
2018-02-12T12:22:53.625Z,54.10
2018-02-12T12:25:21.101Z,53.40
2018-02-12T12:27:49.335Z,54.20
2018-02-12T12:30:16.789Z,54.20
2018-02-12T12:32:44.255Z,53.30
2018-02-12T12:35:11.711Z,53.90
2018-02-12T12:37:39.934Z,54.30
2018-02-12T12:40:08.278Z,54.30
2018-02-12T12:42:35.730Z,54.70
2018-02-12T12:45:03.206Z,56.30
2018-02-12T12:47:30.656Z,54.60
2018-02-12T12:49:58.111Z,55.60
2018-02-12T12:52:25.570Z,53.80
2018-02-12T12:54:53.039Z,54.90
2018-02-12T12:57:21.269Z,52.80
2018-02-12T12:59:48.725Z,52.80
2018-02-12T13:02:16.201Z,52.50
2018-02-12T13:04:43.703Z,51.80
2018-02-12T13:07:11.174Z,52.10
2018-02-12T13:09:38.691Z,51.60
2018-02-12T13:12:06.869Z,51.30
2018-02-12T13:14:34.362Z,51.60
2018-02-12T13:17:02.389Z,51.60
2018-02-12T13:19:29.859Z,52.90
2018-02-12T13:21:58.104Z,51.60
2018-02-12T13:24:25.558Z,51.60
2018-02-12T13:26:53.022Z,51.50
2018-02-12T13:29:20.473Z,52.00
2018-02-12T13:31:47.934Z,52.60
2018-02-12T13:34:15.399Z,55.10
2018-02-12T13:36:42.875Z,57.90
2018-02-12T13:39:11.116Z,63.50
2018-02-12T13:41:38.558Z,63.50
2018-02-12T13:44:06.021Z,63.40
2018-02-12T13:46:33.471Z,63.60
2018-02-12T13:49:00.938Z,62.00
2018-02-12T13:51:28.395Z,60.50
2018-02-12T13:53:55.958Z,61.20
2018-02-12T13:56:23.421Z,60.20
2018-02-12T13:58:51.720Z,59.10
2018-02-12T14:01:19.223Z,59.00
2018-02-12T14:03:46.687Z,59.90
2018-02-12T14:06:14.181Z,59.70
2018-02-12T14:08:41.656Z,58.70
2018-02-12T14:11:09.885Z,58.40
2018-02-12T14:13:37.359Z,58.30
2018-02-12T14:16:04.838Z,58.80
2018-02-12T14:18:32.321Z,56.30
2018-02-12T14:21:00.542Z,54.80
2018-02-12T14:23:27.998Z,54.80
2018-02-12T14:25:55.454Z,55.20
2018-02-12T14:28:22.918Z,57.00
2018-02-12T14:30:51.150Z,58.20
2018-02-12T14:33:18.842Z,58.10
2018-02-12T14:35:46.307Z,56.40
2018-02-12T14:38:13.786Z,56.60
2018-02-12T14:40:41.245Z,56.50
2018-02-12T14:43:08.711Z,59.20
2018-02-12T14:45:36.170Z,58.40
2018-02-12T14:48:04.413Z,58.00
2018-02-12T14:50:31.885Z,57.40
2018-02-12T14:52:59.342Z,55.80
2018-02-12T14:55:26.814Z,57.80
2018-02-12T14:57:54.285Z,57.40
2018-02-12T15:00:22.514Z,57.10
2018-02-12T15:02:49.986Z,57.00
2018-02-12T15:05:17.437Z,56.70
2018-02-12T15:07:44.893Z,55.00
2018-02-12T15:10:12.350Z,55.30
2018-02-12T15:12:39.822Z,55.30
2018-02-12T15:15:07.282Z,55.40
2018-02-12T15:17:35.189Z,55.00
2018-02-12T15:20:02.668Z,55.50
2018-02-12T15:22:30.138Z,55.90
2018-02-12T15:24:57.609Z,55.70
2018-02-12T15:27:25.078Z,56.40
2018-02-12T15:29:52.566Z,56.50
2018-02-12T15:32:20.048Z,56.30
2018-02-12T15:34:47.508Z,57.60
2018-02-12T15:37:14.971Z,56.80
2018-02-12T15:39:42.490Z,56.40
2018-02-12T15:42:10.753Z,57.70
2018-02-12T15:44:38.989Z,56.70
2018-02-12T15:47:06.459Z,56.60
2018-02-12T15:49:33.926Z,56.40
2018-02-12T15:52:01.399Z,58.00
2018-02-12T15:54:29.632Z,57.80
2018-02-12T15:56:57.161Z,57.70
2018-02-12T15:59:24.590Z,56.80
2018-02-12T16:01:52.042Z,58.60
2018-02-12T16:04:19.517Z,57.20
2018-02-12T16:06:47.743Z,57.60
2018-02-12T16:09:15.217Z,57.50
2018-02-12T16:11:42.685Z,57.10
2018-02-12T16:14:10.162Z,57.80
2018-02-12T16:16:38.393Z,59.40
2018-02-12T16:19:05.867Z,59.30
2018-02-12T16:21:33.325Z,59.70
2018-02-12T16:24:00.785Z,59.80
2018-02-12T16:26:28.247Z,59.90
2018-02-12T16:28:55.702Z,59.90
2018-02-12T16:31:23.375Z,59.60
2018-02-12T16:33:51.590Z,59.20
2018-02-12T16:36:19.058Z,59.10
2018-02-12T16:38:46.523Z,59.20
2018-02-12T16:41:14.214Z,58.90
2018-02-12T16:43:41.681Z,59.20
2018-02-12T16:46:09.931Z,57.50
2018-02-12T16:48:37.396Z,57.40
2018-02-12T16:51:04.857Z,56.80
2018-02-12T16:53:32.318Z,57.50
2018-02-12T16:55:59.785Z,57.90
2018-02-12T16:58:27.269Z,57.80
2018-02-12T17:00:54.740Z,57.70
2018-02-12T17:03:22.219Z,58.10
2018-02-12T17:05:49.681Z,58.20
2018-02-12T17:08:17.203Z,58.70
2018-02-12T17:10:44.658Z,58.80
2018-02-12T17:13:12.130Z,58.90
2018-02-12T17:15:39.590Z,58.30
2018-02-12T17:18:07.110Z,58.70
2018-02-12T17:20:35.338Z,59.20
2018-02-12T17:23:02.827Z,59.20
2018-02-12T17:25:30.291Z,59.50
2018-02-12T17:27:57.769Z,59.90
2018-02-12T17:30:25.994Z,60.60
2018-02-12T17:32:53.453Z,60.60
2018-02-12T17:35:20.924Z,62.10
2018-02-12T17:37:48.411Z,65.00
2018-02-12T17:40:15.898Z,66.10
2018-02-12T17:42:43.364Z,67.60
2018-02-12T17:45:10.824Z,68.40
2018-02-12T17:47:38.305Z,68.70
2018-02-12T17:50:05.758Z,69.30
2018-02-12T17:52:33.213Z,68.90
2018-02-12T17:55:02.187Z,70.00
2018-02-12T17:57:29.674Z,70.00
2018-02-12T17:59:57.126Z,70.50
2018-02-12T18:02:24.590Z,70.60
2018-02-12T18:04:52.041Z,71.00
2018-02-12T18:07:19.512Z,71.00
2018-02-12T18:09:47.753Z,71.20
2018-02-12T18:12:15.209Z,71.10
2018-02-12T18:14:42.656Z,71.30
2018-02-12T18:17:10.146Z,70.40
2018-02-12T18:19:37.601Z,70.50
2018-02-12T18:22:05.058Z,69.80
2018-02-12T18:24:32.518Z,70.80
2018-02-12T18:26:59.982Z,70.50
2018-02-12T18:29:27.442Z,70.80
2018-02-12T18:31:54.900Z,71.20
2018-02-12T18:34:22.354Z,71.00
2018-02-12T18:36:49.815Z,71.00
2018-02-12T18:39:17.266Z,71.30
2018-02-12T18:41:44.758Z,70.90
2018-02-12T18:44:12.205Z,70.60
2018-02-12T18:46:39.691Z,70.60
2018-02-12T18:49:07.140Z,71.20
2018-02-12T18:51:34.607Z,70.60
2018-02-12T18:54:02.059Z,70.90
2018-02-12T18:56:29.521Z,71.00
2018-02-12T18:58:56.986Z,70.60
2018-02-12T19:01:24.445Z,70.40
2018-02-12T19:03:52.048Z,70.70
2018-02-12T19:06:19.517Z,70.60
2018-02-12T19:08:47.746Z,71.10
2018-02-12T19:11:15.209Z,70.90
2018-02-12T19:13:42.661Z,72.00
2018-02-12T19:16:10.117Z,72.60
2018-02-12T19:18:37.593Z,73.50
2018-02-12T19:21:05.061Z,74.10
2018-02-12T19:23:33.304Z,73.70
2018-02-12T19:26:00.762Z,73.60
2018-02-12T19:28:28.214Z,73.80
2018-02-12T19:30:55.677Z,73.60
2018-02-12T19:33:23.117Z,73.80
2018-02-12T19:35:50.573Z,73.10
2018-02-12T19:38:18.021Z,73.70
2018-02-12T19:40:45.697Z,72.70
2018-02-12T19:43:13.159Z,73.70
2018-02-12T19:45:40.621Z,73.30
2018-02-12T19:48:08.093Z,72.80
2018-02-12T19:50:35.546Z,73.40
2018-02-12T19:53:03.006Z,73.10
2018-02-12T19:55:30.458Z,73.50
2018-02-12T19:57:57.928Z,73.80
2018-02-12T20:00:25.377Z,74.20
2018-02-12T20:02:52.847Z,74.70
2018-02-12T20:05:20.561Z,74.50
2018-02-12T20:07:48.025Z,73.90
2018-02-12T20:10:15.487Z,74.40
2018-02-12T20:12:42.932Z,74.40
2018-02-12T20:15:10.393Z,73.80
2018-02-12T20:17:37.839Z,73.80
2018-02-12T20:20:05.395Z,73.90
2018-02-12T20:22:32.955Z,74.60
2018-02-12T20:25:00.463Z,74.10
2018-02-12T20:27:27.922Z,74.20
2018-02-12T20:29:55.401Z,74.00
2018-02-12T20:32:23.639Z,73.80
2018-02-12T20:34:51.105Z,73.70
2018-02-12T20:37:18.557Z,74.20
2018-02-12T20:39:46.042Z,74.40
2018-02-12T20:42:14.285Z,73.30
2018-02-12T20:44:41.745Z,73.10
2018-02-12T20:47:09.205Z,73.20
2018-02-12T20:49:36.666Z,73.60
2018-02-12T20:52:04.120Z,73.30
2018-02-12T20:54:31.579Z,72.90
2018-02-12T20:56:59.046Z,73.30
2018-02-12T20:59:26.505Z,74.00
2018-02-12T21:01:53.963Z,73.70
2018-02-12T21:04:21.415Z,73.30
2018-02-12T21:06:48.874Z,72.50
2018-02-12T21:09:16.318Z,72.10
2018-02-12T21:11:43.779Z,72.10
2018-02-12T21:14:11.234Z,73.50
2018-02-12T21:16:38.700Z,73.00
2018-02-12T21:19:06.169Z,72.10
2018-02-12T21:21:33.617Z,72.20
2018-02-12T21:24:01.078Z,72.80
2018-02-12T21:26:28.525Z,71.90
2018-02-12T21:28:55.992Z,71.70
2018-02-12T21:31:23.437Z,71.70
2018-02-12T21:33:50.899Z,71.70
2018-02-12T21:36:18.344Z,71.40
2018-02-12T21:38:45.842Z,71.30
2018-02-12T21:41:14.062Z,71.30
2018-02-12T21:43:42.286Z,71.70
2018-02-12T21:48:44.434Z,70.50
2018-02-12T21:51:11.882Z,70.60
2018-02-12T21:53:39.362Z,70.60
2018-02-12T21:56:06.851Z,70.70
2018-02-12T21:58:35.070Z,69.80
2018-02-12T22:01:02.530Z,69.80
2018-02-12T22:03:30.000Z,69.20
2018-02-12T22:05:57.453Z,69.20
2018-02-12T22:08:24.935Z,68.30
2018-02-12T22:10:52.398Z,68.70
2018-02-12T22:13:20.624Z,68.70
2018-02-12T22:15:48.074Z,68.60
2018-02-12T22:18:15.533Z,68.50
2018-02-12T22:20:42.985Z,68.10
2018-02-12T22:23:10.435Z,68.40
2018-02-12T22:25:37.912Z,67.80
2018-02-12T22:28:05.374Z,67.90
2018-02-12T22:30:32.829Z,68.00
2018-02-12T22:33:00.311Z,68.30
2018-02-12T22:35:27.795Z,68.80
2018-02-12T22:37:55.294Z,70.30
2018-02-12T22:40:22.751Z,71.00
2018-02-12T22:42:50.217Z,71.60
2018-02-12T22:45:17.678Z,72.10
2018-02-12T22:47:45.138Z,72.20
2018-02-12T22:50:12.617Z,72.00
2018-02-12T22:52:40.850Z,72.80
2018-02-12T22:55:08.344Z,72.70
2018-02-12T22:57:35.966Z,72.80
2018-02-12T23:00:04.335Z,72.70
2018-02-12T23:02:32.558Z,72.50
2018-02-12T23:05:00.095Z,72.30
2018-02-12T23:07:28.450Z,72.30
2018-02-12T23:09:55.926Z,72.10
2018-02-12T23:12:23.385Z,71.70
2018-02-12T23:14:50.834Z,71.80
2018-02-12T23:17:18.294Z,71.80
2018-02-12T23:19:45.745Z,71.90
2018-02-12T23:22:13.205Z,71.80
2018-02-12T23:24:40.656Z,71.70
2018-02-12T23:27:08.882Z,72.10
2018-02-12T23:29:36.346Z,72.10
2018-02-12T23:32:04.567Z,72.00
2018-02-12T23:34:32.026Z,71.90
2018-02-12T23:36:59.474Z,72.30
2018-02-12T23:39:26.944Z,72.10
2018-02-12T23:41:54.395Z,72.10
2018-02-12T23:44:21.849Z,72.30
2018-02-12T23:46:49.301Z,72.10
2018-02-12T23:49:16.757Z,72.40
2018-02-12T23:51:44.229Z,72.70
2018-02-12T23:54:23.345Z,72.80
2018-02-12T23:56:50.801Z,73.00
2018-02-12T23:59:18.262Z,73.00
